Time;durP1;ratioP1;P1;durP2;ratioP2;P2;SDS_P1;SDS_P2;PMS_P1;PMS_P2;Temp;Humidity;BMP_temperature;BMP_pressure;BME280_temperature;BME280_humidity;BME280_pressure;Samples;Min_cycle;Max_cycle;Signal;HPM_P1;HPM_P2
2023/04/09 00:00:39;;;;;;;14.27;11.90;;;;;;;8.15;85.19;95231.44;5018225;28;20301;-71
2023/04/09 00:03:06;;;;;;;14.88;11.70;;;;;;;8.22;85.27;95237.19;5018869;28;20231;-67
2023/04/09 00:05:32;;;;;;;13.10;11.77;;;;;;;8.19;85.23;95233.03;5018505;28;21225;-71
2023/04/09 00:08:00;;;;;;;13.23;11.13;;;;;;;8.21;85.10;95238.06;5019461;28;20211;-65
2023/04/09 00:10:27;;;;;;;13.52;11.88;;;;;;;8.27;84.92;95239.63;5018405;28;20333;-73
2023/04/09 00:12:54;;;;;;;11.65;10.45;;;;;;;8.32;84.29;95238.69;5018862;28;20338;-69
2023/04/09 00:15:20;;;;;;;12.18;10.95;;;;;;;8.30;84.58;95245.47;5018181;28;20293;-73
2023/04/09 00:17:47;;;;;;;12.52;11.23;;;;;;;8.31;84.48;95251.38;5018690;28;20282;-68
2023/04/09 00:20:14;;;;;;;13.93;12.30;;;;;;;8.30;84.89;95249.69;5017129;28;20352;-68
2023/04/09 00:22:41;;;;;;;14.77;12.32;;;;;;;8.31;85.50;95252.19;5017768;28;20208;-71
2023/04/09 00:25:09;;;;;;;14.07;12.25;;;;;;;8.24;85.75;95242.22;5017310;28;20730;-69
2023/04/09 00:27:36;;;;;;;13.30;11.98;;;;;;;8.32;84.68;95241.22;5018928;28;20262;-64
2023/04/09 00:30:03;;;;;;;11.38;10.20;;;;;;;8.31;85.17;95248.84;5017510;28;20340;-71
2023/04/09 00:32:30;;;;;;;12.25;10.95;;;;;;;8.32;85.14;95258.09;5017884;28;20324;-72
2023/04/09 00:34:56;;;;;;;13.27;10.57;;;;;;;8.39;84.33;95254.59;5016604;28;20226;-70
2023/04/09 00:37:23;;;;;;;12.27;10.60;;;;;;;8.48;84.36;95259.44;5017610;28;20231;-69
2023/04/09 00:39:50;;;;;;;11.05;9.98;;;;;;;8.44;83.73;95257.84;5018492;28;20368;-72
2023/04/09 00:42:18;;;;;;;12.25;10.90;;;;;;;8.39;84.79;95257.13;5016607;28;20286;-72
2023/04/09 00:44:45;;;;;;;12.50;11.13;;;;;;;8.37;84.35;95251.28;5017338;28;20662;-65
2023/04/09 00:47:11;;;;;;;14.25;10.68;;;;;;;8.37;84.14;95251.28;5017756;28;20332;-70
2023/04/09 00:49:38;;;;;;;12.90;11.52;;;;;;;8.37;85.24;95246.19;5017706;28;20804;-68
2023/04/09 00:52:05;;;;;;;12.70;11.13;;;;;;;8.34;84.43;95241.19;5016839;28;20319;-73
2023/04/09 00:54:32;;;;;;;11.68;10.65;;;;;;;8.53;84.43;95242.44;5017780;28;20552;-73
2023/04/09 00:56:59;;;;;;;11.35;10.32;;;;;;;8.51;84.29;95239.94;5017828;28;20915;-69
2023/04/09 00:59:28;;;;;;;11.65;10.52;;;;;;;8.52;84.42;95245.84;5017817;28;20239;-70
2023/04/09 01:01:55;;;;;;;11.95;10.18;;;;;;;8.37;83.93;95241.13;5016101;28;20749;-71
2023/04/09 01:04:24;;;;;;;11.45;10.20;;;;;;;8.24;84.94;95243.06;5017697;28;20239;-72
2023/04/09 01:06:52;;;;;;;12.00;10.77;;;;;;;8.33;84.96;95252.19;5016494;28;20338;-65
2023/04/09 01:09:27;;;;;;;11.05;9.98;;;;;;;8.36;84.67;95247.91;5018049;28;20214;-74
2023/04/09 01:12:02;;;;;;;13.73;10.05;;;;;;;8.36;84.64;95239.47;5016724;28;21011;-70
2023/04/09 01:14:37;;;;;;;11.40;10.40;;;;;;;8.32;84.13;95248.84;5017041;28;20230;-74
2023/04/09 01:17:06;;;;;;;10.75;9.85;;;;;;;8.21;84.46;95253.25;5016984;28;20337;-73
2023/04/09 01:19:42;;;;;;;10.27;9.27;;;;;;;8.22;84.97;95247.31;5017429;28;20251;-65
2023/04/09 01:22:20;;;;;;;9.55;8.60;;;;;;;8.17;84.54;95252.47;5017225;28;20209;-68
2023/04/09 01:25:02;;;;;;;9.18;8.38;;;;;;;8.25;84.53;95256.56;5017138;28;20281;-64
2023/04/09 01:27:38;;;;;;;10.32;9.48;;;;;;;8.36;83.74;95254.66;5017384;28;20231;-73
2023/04/09 01:30:08;;;;;;;9.65;8.75;;;;;;;8.44;83.35;95252.78;5017688;28;20215;-71
2023/04/09 01:32:38;;;;;;;10.27;9.38;;;;;;;8.57;82.78;95255.88;5017011;28;20762;-74
2023/04/09 01:35:07;;;;;;;10.50;9.23;;;;;;;8.61;83.54;95249.88;5016959;28;20322;-73
2023/04/09 01:37:34;;;;;;;10.23;9.32;;;;;;;8.53;82.63;95257.66;5016729;28;20218;-72
2023/04/09 01:40:03;;;;;;;11.55;9.63;;;;;;;8.53;82.27;95257.66;5017574;28;20304;-68
2023/04/09 01:42:30;;;;;;;10.55;9.60;;;;;;;8.78;82.03;95258.75;5016390;28;20215;-72
2023/04/09 01:44:58;;;;;;;11.60;10.40;;;;;;;8.63;82.33;95259.13;5016442;28;20294;-72
2023/04/09 01:47:27;;;;;;;11.18;10.00;;;;;;;8.85;81.96;95257.75;5015127;28;20298;-71
2023/04/09 01:49:54;;;;;;;10.88;9.88;;;;;;;8.69;82.43;95256.41;5016063;28;20282;-68
2023/04/09 01:52:21;;;;;;;10.48;9.45;;;;;;;8.75;81.83;95261.34;5016377;28;20345;-70
2023/04/09 01:54:48;;;;;;;11.18;10.15;;;;;;;8.73;82.16;95260.56;5015235;28;20812;-73
2023/04/09 01:57:15;;;;;;;10.18;9.27;;;;;;;8.92;81.22;95255.03;5015479;28;20228;-70
2023/04/09 01:59:41;;;;;;;10.68;9.68;;;;;;;8.85;81.77;95250.13;5015946;28;20292;-73
2023/04/09 02:02:12;;;;;;;10.30;9.38;;;;;;;8.95;80.72;95254.97;5016116;28;20715;-68
2023/04/09 02:04:43;;;;;;;12.05;9.88;;;;;;;9.02;80.57;95249.72;5015692;28;20727;-63
2023/04/09 02:07:14;;;;;;;10.45;9.45;;;;;;;9.06;80.19;95255.56;5015729;28;20690;-73
2023/04/09 02:09:43;;;;;;;11.05;9.90;;;;;;;9.03;79.75;95253.09;5015392;28;20214;-70
2023/04/09 02:12:14;;;;;;;10.23;9.23;;;;;;;8.81;81.10;95248.53;5015919;28;20294;-69
2023/04/09 02:14:41;;;;;;;11.15;9.25;;;;;;;8.73;81.65;95257.19;5015941;28;20318;-66
2023/04/09 02:17:08;;;;;;;10.38;9.38;;;;;;;8.74;81.53;95252.09;5015378;28;20677;-69
2023/04/09 02:19:40;;;;;;;10.75;9.75;;;;;;;8.78;81.42;95243.53;5015382;28;20354;-73
2023/04/09 02:22:07;;;;;;;11.45;10.35;;;;;;;8.71;81.74;95252.16;5016305;28;20299;-72
2023/04/09 02:24:34;;;;;;;12.43;10.40;;;;;;;8.77;81.99;95254.53;5015176;28;20294;-73
2023/04/09 02:27:00;;;;;;;10.65;9.65;;;;;;;8.72;82.31;95236.09;5015759;28;20259;-73
2023/04/09 02:29:27;;;;;;;14.60;10.05;;;;;;;8.71;81.42;95247.09;5015404;28;20287;-71
2023/04/09 02:31:54;;;;;;;11.25;10.25;;;;;;;8.57;82.76;95250.81;5015855;28;20342;-70
2023/04/09 02:34:21;;;;;;;10.95;9.88;;;;;;;8.52;82.54;95255.97;5015421;28;20282;-70
2023/04/09 02:36:49;;;;;;;11.30;9.40;;;;;;;8.35;83.35;95258.06;5016720;28;20364;-64
2023/04/09 02:39:15;;;;;;;10.63;9.57;;;;;;;8.35;83.55;95258.91;5016146;28;20236;-72
2023/04/09 02:41:43;;;;;;;12.18;11.00;;;;;;;8.32;83.51;95250.50;5015480;28;20204;-67
2023/04/09 02:44:10;;;;;;;11.65;9.93;;;;;;;8.37;83.84;95248.72;5016896;28;20287;-72
2023/04/09 02:46:38;;;;;;;11.55;10.45;;;;;;;8.34;83.52;95253.88;5015205;28;20262;-67
2023/04/09 02:49:05;;;;;;;12.77;10.60;;;;;;;8.15;83.58;95251.69;5015276;28;20258;-71
2023/04/09 02:51:34;;;;;;;11.60;10.45;;;;;;;8.23;84.09;95248.97;5014805;28;20212;-67
2023/04/09 02:54:02;;;;;;;10.98;9.88;;;;;;;8.14;83.58;95242.44;5014879;28;20350;-68
2023/04/09 02:56:29;;;;;;;12.05;10.95;;;;;;;8.09;84.30;95235.81;5015099;28;20323;-72
2023/04/09 02:58:56;;;;;;;11.20;10.07;;;;;;;8.01;84.17;95243.53;5014824;28;20341;-68
2023/04/09 03:01:22;;;;;;;11.95;10.57;;;;;;;8.06;84.32;95246.81;5015871;28;20282;-68
2023/04/09 03:03:49;;;;;;;15.52;10.95;;;;;;;7.96;84.26;95245.34;5016094;28;20282;-67
2023/04/09 03:06:17;;;;;;;13.73;10.80;;;;;;;7.82;85.32;95248.16;5015837;28;20207;-73
2023/04/09 03:08:44;;;;;;;12.95;10.48;;;;;;;7.80;85.40;95246.50;5015488;28;20302;-71
2023/04/09 03:11:12;;;;;;;12.45;11.18;;;;;;;7.73;84.85;95242.44;5015115;28;20307;-73
2023/04/09 03:13:38;;;;;;;10.93;9.93;;;;;;;7.79;85.11;95248.22;5015555;28;20804;-71
2023/04/09 03:16:06;;;;;;;11.25;10.15;;;;;;;7.79;84.88;95239.78;5015424;28;20294;-65
2023/04/09 03:18:33;;;;;;;17.73;11.02;;;;;;;7.87;84.89;95243.00;5015491;28;20212;-74
2023/04/09 03:20:59;;;;;;;11.65;10.45;;;;;;;7.86;84.95;95241.34;5015011;28;20694;-73
2023/04/09 03:23:26;;;;;;;11.88;10.70;;;;;;;7.90;84.82;95245.47;5015804;28;20278;-71
2023/04/09 03:26:00;;;;;;;10.80;9.80;;;;;;;7.93;84.90;95242.84;5016290;28;20239;-66
2023/04/09 03:28:29;;;;;;;14.65;11.60;;;;;;;7.79;84.88;95243.16;5015270;28;20610;-68
2023/04/09 03:30:55;;;;;;;15.13;11.98;;;;;;;7.73;85.00;95238.22;5015201;28;20212;-68
2023/04/09 03:33:22;;;;;;;12.25;10.95;;;;;;;7.77;85.47;95238.97;5015607;28;20266;-72
2023/04/09 03:35:49;;;;;;;13.60;11.60;;;;;;;7.74;85.43;95239.03;5014681;28;20270;-71
2023/04/09 03:38:16;;;;;;;15.00;12.20;;;;;;;7.75;84.78;95244.06;5015296;28;20204;-68
2023/04/09 03:40:42;;;;;;;13.50;12.18;;;;;;;7.71;85.91;95246.69;5014855;28;20316;-68
2023/04/09 03:43:09;;;;;;;14.13;12.18;;;;;;;7.71;86.57;95244.16;5015326;28;20239;-68
2023/04/09 03:45:37;;;;;;;12.77;11.48;;;;;;;7.78;85.60;95246.53;5015226;28;20657;-72
2023/04/09 03:48:04;;;;;;;14.02;12.63;;;;;;;7.69;85.71;95243.34;5015559;28;20299;-71
2023/04/09 03:50:30;;;;;;;15.82;12.32;;;;;;;7.61;85.37;95247.75;5015156;28;20711;-67
2023/04/09 03:52:57;;;;;;;13.73;12.30;;;;;;;7.57;85.91;95246.13;5015623;28;20354;-71
2023/04/09 03:55:24;;;;;;;14.32;12.32;;;;;;;7.59;85.90;95244.41;5014994;28;20283;-70
2023/04/09 03:57:50;;;;;;;13.85;12.45;;;;;;;7.51;86.36;95252.97;5015329;28;20291;-74
2023/04/09 04:00:18;;;;;;;13.38;11.50;;;;;;;7.58;86.25;95252.84;5014465;28;20296;-74
2023/04/09 04:02:46;;;;;;;12.90;11.40;;;;;;;7.64;85.76;95252.75;5015016;28;20210;-73
2023/04/09 04:05:12;;;;;;;14.07;12.68;;;;;;;7.65;85.92;95259.47;5014915;28;20295;-69
2023/04/09 04:07:42;;;;;;;15.55;13.00;;;;;;;7.63;86.15;95258.66;5014579;28;20243;-68
2023/04/09 04:10:09;;;;;;;17.02;11.80;;;;;;;7.75;85.87;95261.78;5014336;28;20307;-64
2023/04/09 04:12:36;;;;;;;14.68;12.63;;;;;;;7.74;85.12;95260.13;5015050;28;20289;-73
2023/04/09 04:15:03;;;;;;;16.13;13.00;;;;;;;7.80;85.20;95264.22;5014314;28;20302;-65
2023/04/09 04:17:30;;;;;;;18.00;13.13;;;;;;;7.85;85.22;95262.44;5016852;28;20261;-69
2023/04/09 04:19:58;;;;;;;17.95;14.82;;;;;;;7.93;85.03;95255.50;5018174;28;20326;-65
2023/04/09 04:22:24;;;;;;;15.43;13.15;;;;;;;7.96;84.65;95260.53;5018288;28;20291;-70
2023/04/09 04:24:51;;;;;;;19.38;14.43;;;;;;;8.01;84.81;95263.78;5016137;28;20669;-72
2023/04/09 04:27:18;;;;;;;20.17;14.85;;;;;;;7.93;84.84;95260.56;5016673;28;20308;-66
2023/04/09 04:29:44;;;;;;;16.00;13.23;;;;;;;7.93;84.98;95258.03;5014476;28;20234;-66
2023/04/09 04:32:11;;;;;;;22.70;13.23;;;;;;;7.80;85.01;95265.06;5017227;28;20350;-65
2023/04/09 04:34:38;;;;;;;22.15;14.30;;;;;;;7.90;85.16;95264.91;5017952;28;20278;-66
2023/04/09 04:37:06;;;;;;;16.85;13.05;;;;;;;7.89;85.21;95268.28;5016582;28;20362;-72
2023/04/09 04:39:32;;;;;;;15.93;14.23;;;;;;;7.90;84.89;95263.19;5017447;28;20227;-72
2023/04/09 04:42:00;;;;;;;19.95;14.55;;;;;;;7.91;85.10;95264.03;5018421;28;20274;-66
2023/04/09 04:44:26;;;;;;;15.50;13.48;;;;;;;7.93;84.96;95269.88;5018094;28;20208;-67
2023/04/09 04:46:53;;;;;;;19.70;15.35;;;;;;;7.97;84.61;95261.34;5018697;28;21953;-72
2023/04/09 04:49:20;;;;;;;24.83;15.77;;;;;;;8.04;83.53;95253.63;5017355;28;20239;-71
2023/04/09 04:51:46;;;;;;;23.60;14.50;;;;;;;8.12;83.67;95264.41;5016769;28;20235;-71
2023/04/09 04:54:14;;;;;;;17.40;13.90;;;;;;;8.05;84.35;95270.47;5018323;28;20315;-71
2023/04/09 04:56:41;;;;;;;24.88;15.93;;;;;;;8.07;84.10;95278.88;5017193;28;20776;-66
2023/04/09 04:59:08;;;;;;;18.48;14.55;;;;;;;8.31;82.85;95276.69;5017812;28;20303;-65
2023/04/09 05:01:34;;;;;;;19.52;14.32;;;;;;;8.46;82.69;95271.31;5017141;28;20333;-71
2023/04/09 05:04:02;;;;;;;17.00;14.10;;;;;;;8.61;81.81;95273.50;5018457;28;20295;-68
2023/04/09 05:06:28;;;;;;;19.55;14.77;;;;;;;8.67;81.20;95265.75;5016651;28;20293;-68
2023/04/09 05:08:56;;;;;;;20.08;14.95;;;;;;;8.82;80.82;95270.47;5016941;28;20692;-71
2023/04/09 05:11:25;;;;;;;20.90;14.52;;;;;;;8.90;80.63;95279.63;5016341;28;20204;-66
2023/04/09 05:13:51;;;;;;;19.25;15.07;;;;;;;9.23;79.02;95276.25;5017822;28;20226;-71
2023/04/09 05:16:18;;;;;;;16.52;13.65;;;;;;;9.21;78.62;95272.91;5016591;28;20223;-66
2023/04/09 05:18:45;;;;;;;20.40;15.52;;;;;;;9.15;79.12;95273.09;5017750;28;20235;-65
2023/04/09 05:21:12;;;;;;;19.85;15.07;;;;;;;9.21;78.84;95268.69;5016235;28;20354;-67
2023/04/09 05:23:39;;;;;;;23.83;14.95;;;;;;;9.55;77.42;95276.25;5016363;28;20293;-69
2023/04/09 05:26:05;;;;;;;20.38;14.73;;;;;;;9.81;76.29;95270.50;5016704;28;20289;-68
2023/04/09 05:28:33;;;;;;;18.90;15.93;;;;;;;10.16;75.37;95261.03;5016072;28;20318;-69
2023/04/09 05:31:00;;;;;;;21.73;17.00;;;;;;;10.10;75.27;95262.06;5016730;28;20685;-69
2023/04/09 05:33:28;;;;;;;24.08;16.00;;;;;;;10.18;74.98;95267.75;5016881;28;20326;-64
2023/04/09 05:35:54;;;;;;;17.73;15.02;;;;;;;10.33;74.62;95261.44;5016162;28;20875;-67
2023/04/09 05:38:21;;;;;;;20.58;15.95;;;;;;;10.34;73.69;95272.44;5017210;28;20203;-70
2023/04/09 05:40:48;;;;;;;17.17;14.55;;;;;;;10.14;74.07;95278.91;5016688;28;20284;-68
2023/04/09 05:43:14;;;;;;;18.17;13.55;;;;;;;10.07;74.34;95267.22;5016870;28;20236;-65
2023/04/09 05:45:42;;;;;;;22.10;15.95;;;;;;;10.19;74.11;95271.16;5016322;28;20289;-65
2023/04/09 05:48:09;;;;;;;17.50;15.05;;;;;;;10.56;72.67;95273.47;5017060;28;20290;-68
2023/04/09 05:50:36;;;;;;;17.20;13.45;;;;;;;10.66;71.68;95277.38;5016903;28;20211;-69
2023/04/09 05:53:03;;;;;;;22.85;14.77;;;;;;;10.42;72.13;95273.00;5016735;28;20294;-68
2023/04/09 05:55:31;;;;;;;19.40;12.23;;;;;;;10.20;72.39;95277.91;5016561;28;20318;-69
2023/04/09 05:57:58;;;;;;;18.30;15.15;;;;;;;10.18;72.62;95280.44;5016392;28;20660;-69
2023/04/09 06:00:24;;;;;;;18.88;14.68;;;;;;;10.41;72.52;95271.34;5016652;28;20239;-68
2023/04/09 06:02:52;;;;;;;15.77;12.85;;;;;;;10.74;70.96;95275.44;5016346;28;20767;-69
2023/04/09 06:05:19;;;;;;;15.23;12.27;;;;;;;10.56;71.13;95276.00;5016613;28;20286;-65
2023/04/09 06:07:46;;;;;;;17.58;13.27;;;;;;;10.74;70.79;95277.13;5016414;28;20975;-67
2023/04/09 06:10:13;;;;;;;25.40;18.05;;;;;;;11.21;69.62;95278.19;5016707;28;20288;-68
2023/04/09 06:12:39;;;;;;;17.77;12.93;;;;;;;11.89;67.02;95280.13;5016348;28;20211;-67
2023/04/09 06:15:07;;;;;;;15.88;12.98;;;;;;;13.03;64.17;95264.81;5016640;28;20231;-72
2023/04/09 06:17:34;;;;;;;16.05;12.98;;;;;;;14.44;58.97;95263.06;5016677;28;20247;-69
2023/04/09 06:20:02;;;;;;;17.73;12.85;;;;;;;15.75;54.76;95262.75;5016536;28;20208;-69
2023/04/09 06:22:29;;;;;;;17.05;12.38;;;;;;;16.33;52.21;95265.69;5015993;28;20204;-67
2023/04/09 06:24:56;;;;;;;14.80;11.45;;;;;;;16.30;52.91;95267.59;5016593;28;20726;-65
2023/04/09 06:27:22;;;;;;;14.27;12.13;;;;;;;16.12;52.98;95271.94;5016093;28;20349;-69
2023/04/09 06:29:49;;;;;;;13.93;11.52;;;;;;;15.37;54.27;95277.41;5016511;28;20261;-67
2023/04/09 06:32:17;;;;;;;12.35;10.13;;;;;;;15.03;54.44;95267.16;5015674;28;20792;-65
2023/04/09 06:34:43;;;;;;;13.32;10.45;;;;;;;14.35;56.72;95264.31;5016161;28;20239;-70
2023/04/09 06:37:12;;;;;;;12.93;11.60;;;;;;;14.03;57.76;95273.41;5015992;28;20249;-69
2023/04/09 06:39:38;;;;;;;11.18;10.18;;;;;;;14.52;56.76;95271.25;5015874;28;20207;-69
2023/04/09 06:42:05;;;;;;;9.18;8.18;;;;;;;14.98;54.26;95275.03;5016311;28;20328;-69
2023/04/09 06:44:33;;;;;;;12.30;11.10;;;;;;;14.42;56.41;95278.50;5015894;28;21272;-70
2023/04/09 06:47:01;;;;;;;10.85;9.68;;;;;;;15.76;53.07;95279.78;5015367;28;20243;-69
2023/04/09 06:49:27;;;;;;;10.93;9.98;;;;;;;16.01;51.71;95279.38;5016248;28;20207;-70
2023/04/09 06:51:54;;;;;;;9.70;8.90;;;;;;;15.42;52.79;95285.69;5015670;28;20718;-69
2023/04/09 06:54:23;;;;;;;12.23;11.05;;;;;;;14.48;55.99;95285.06;5015470;28;20289;-72
2023/04/09 06:56:50;;;;;;;12.85;9.77;;;;;;;15.80;52.68;95276.16;5015974;28;20309;-68
2023/04/09 06:59:17;;;;;;;10.43;9.43;;;;;;;16.28;50.51;95288.19;5015730;28;20291;-70
2023/04/09 07:01:44;;;;;;;10.07;9.18;;;;;;;15.29;51.76;95277.81;5015807;28;20231;-71
2023/04/09 07:04:11;;;;;;;10.55;9.45;;;;;;;14.01;55.35;95285.41;5015497;28;20708;-70
2023/04/09 07:06:39;;;;;;;11.90;10.70;;;;;;;13.14;58.76;95300.91;5015089;28;20235;-66
2023/04/09 07:09:05;;;;;;;12.02;10.82;;;;;;;12.24;62.17;95292.44;5016008;28;20224;-71
2023/04/09 07:11:34;;;;;;;12.57;11.32;;;;;;;12.06;63.02;95293.13;5015359;28;20204;-72
2023/04/09 07:14:00;;;;;;;11.45;10.25;;;;;;;11.84;64.34;95302.41;5015476;28;20235;-67
2023/04/09 07:16:27;;;;;;;12.85;11.23;;;;;;;12.04;64.23;95288.97;5014765;28;20693;-68
2023/04/09 07:18:54;;;;;;;16.20;10.98;;;;;;;13.01;61.76;95281.91;5015659;28;20294;-72
2023/04/09 07:21:20;;;;;;;11.90;10.63;;;;;;;13.12;60.21;95289.94;5015563;28;20239;-71
2023/04/09 07:23:47;;;;;;;13.60;11.95;;;;;;;12.55;61.71;95288.78;5015538;28;20214;-70
2023/04/09 07:26:14;;;;;;;12.45;11.23;;;;;;;12.21;62.45;95302.75;5014824;28;20223;-70
2023/04/09 07:28:42;;;;;;;13.13;11.80;;;;;;;12.30;62.33;95288.84;5015527;28;20225;-69
2023/04/09 07:31:09;;;;;;;13.43;12.00;;;;;;;12.66;61.39;95291.72;5015133;28;20302;-68
2023/04/09 07:33:36;;;;;;;12.32;11.02;;;;;;;12.80;60.05;95292.06;5016121;28;21282;-69
2023/04/09 07:36:03;;;;;;;10.77;9.68;;;;;;;12.30;60.47;95291.41;5014604;28;20322;-70
2023/04/09 07:38:30;;;;;;;11.88;10.60;;;;;;;12.07;61.70;95297.34;5015088;28;20844;-69
2023/04/09 07:40:57;;;;;;;11.48;10.25;;;;;;;12.01;62.09;95295.00;5015178;28;20239;-70
2023/04/09 07:43:24;;;;;;;10.82;8.73;;;;;;;11.99;60.67;95299.31;5015600;28;20720;-68
2023/04/09 07:45:52;;;;;;;11.30;10.07;;;;;;;11.72;61.32;95303.59;5015062;28;20686;-72
2023/04/09 07:48:18;;;;;;;9.38;8.23;;;;;;;11.42;61.19;95297.81;5015424;28;20361;-71
2023/04/09 07:50:45;;;;;;;10.60;8.98;;;;;;;11.31;61.85;95307.53;5015041;28;20922;-65
2023/04/09 07:53:12;;;;;;;10.77;9.77;;;;;;;11.38;62.06;95303.91;5018107;28;20716;-68
2023/04/09 07:55:39;;;;;;;9.63;8.63;;;;;;;11.67;60.50;95294.47;5019004;28;20233;-68
2023/04/09 07:58:06;;;;;;;12.75;10.32;;;;;;;11.75;60.50;95302.66;5019324;28;20211;-71
2023/04/09 08:00:33;;;;;;;12.45;9.35;;;;;;;12.11;59.24;95300.59;5019421;28;20261;-72
2023/04/09 08:03:02;;;;;;;10.25;9.25;;;;;;;12.83;57.49;95294.50;5018629;28;20295;-65
2023/04/09 08:05:29;;;;;;;8.02;7.32;;;;;;;15.41;50.24;95296.84;5018522;28;20204;-72
2023/04/09 08:07:56;;;;;;;8.40;7.70;;;;;;;18.04;43.95;95297.25;5018502;28;20874;-69
2023/04/09 08:10:23;;;;;;;10.80;8.80;;;;;;;19.08;40.94;95302.03;5019064;28;20277;-67
2023/04/09 08:12:50;;;;;;;9.95;9.05;;;;;;;17.23;43.78;95301.06;5019091;28;20243;-66
2023/04/09 08:15:16;;;;;;;7.78;7.13;;;;;;;17.46;43.85;95312.63;5019172;28;20373;-67
2023/04/09 08:17:43;;;;;;;9.57;8.80;;;;;;;16.11;46.40;95306.16;5018011;28;20645;-71
2023/04/09 08:20:12;;;;;;;9.73;9.00;;;;;;;14.69;50.28;95313.94;5018530;28;20597;-69
2023/04/09 08:22:40;;;;;;;9.63;8.43;;;;;;;13.54;53.83;95310.41;5018351;28;20360;-67
2023/04/09 08:25:08;;;;;;;12.48;9.50;;;;;;;12.62;56.46;95314.88;5019797;28;20210;-69
2023/04/09 08:27:35;;;;;;;11.35;9.50;;;;;;;12.37;57.89;95332.78;5017836;28;20738;-73
2023/04/09 08:30:02;;;;;;;10.88;8.43;;;;;;;12.74;57.33;95335.63;5018160;28;20677;-72
2023/04/09 08:32:29;;;;;;;13.75;9.20;;;;;;;13.18;56.16;95317.81;5018266;28;20223;-67
2023/04/09 08:34:56;;;;;;;11.95;9.90;;;;;;;13.26;56.08;95323.44;5018436;28;20760;-68
2023/04/09 08:37:25;;;;;;;10.45;8.63;;;;;;;13.27;55.53;95312.34;5018225;28;20325;-71
2023/04/09 08:39:52;;;;;;;7.70;6.95;;;;;;;13.06;55.83;95343.78;5018933;28;20207;-71
2023/04/09 08:42:21;;;;;;;7.75;6.90;;;;;;;13.38;55.19;95306.78;5017840;28;21143;-63
2023/04/09 08:44:48;;;;;;;8.32;7.63;;;;;;;14.29;52.80;95316.53;5018582;28;20208;-69
2023/04/09 08:47:15;;;;;;;8.90;8.18;;;;;;;15.16;50.32;95298.94;5018030;28;20334;-67
2023/04/09 08:49:41;;;;;;;7.75;7.05;;;;;;;15.62;49.03;95302.69;5018061;28;20294;-69
2023/04/09 08:52:08;;;;;;;8.82;7.93;;;;;;;16.04;47.64;95293.75;5017894;28;20316;-71
2023/04/09 08:54:36;;;;;;;6.82;6.13;;;;;;;16.49;46.53;95303.38;5017959;28;20303;-71
2023/04/09 08:57:05;;;;;;;9.55;8.70;;;;;;;15.52;48.76;95296.34;5017324;28;20212;-69
2023/04/09 08:59:35;;;;;;;8.13;7.38;;;;;;;15.16;49.52;95299.75;5018657;28;20345;-69
2023/04/09 09:02:09;;;;;;;9.35;8.60;;;;;;;14.26;52.37;95305.63;5017454;28;20243;-69
2023/04/09 09:04:47;;;;;;;9.32;8.48;;;;;;;14.40;52.18;95294.75;5018341;28;20767;-70
2023/04/09 09:07:13;;;;;;;12.00;9.48;;;;;;;14.63;52.14;95300.53;5017803;28;20282;-71
2023/04/09 09:09:55;;;;;;;10.35;9.23;;;;;;;13.97;53.90;95296.66;5017547;28;20315;-66
2023/04/09 09:12:33;;;;;;;9.70;8.55;;;;;;;14.43;52.58;95277.59;5017832;28;20203;-71
2023/04/09 09:15:00;;;;;;;13.32;8.05;;;;;;;13.38;54.76;95288.94;5017777;28;20932;-71
2023/04/09 09:17:26;;;;;;;8.93;8.13;;;;;;;12.90;56.95;95297.63;5017069;28;20317;-69
2023/04/09 09:19:53;;;;;;;10.45;9.45;;;;;;;12.83;56.93;95291.09;5017852;28;20285;-68
2023/04/09 09:22:20;;;;;;;10.15;9.13;;;;;;;13.24;56.70;95287.78;5017794;28;20718;-70
2023/04/09 09:24:48;;;;;;;14.02;9.55;;;;;;;13.46;55.99;95287.72;5017616;28;20241;-69
2023/04/09 09:27:31;;;;;;;9.52;8.63;;;;;;;13.77;54.69;95296.69;5016767;28;20223;-68
2023/04/09 09:29:58;;;;;;;10.32;9.48;;;;;;;13.86;54.66;95281.78;5017495;28;20219;-67
2023/04/09 09:32:25;;;;;;;10.88;9.85;;;;;;;14.29;54.02;95290.16;5017315;28;20307;-68
2023/04/09 09:34:59;;;;;;;10.85;8.88;;;;;;;14.29;53.77;95280.75;5017439;28;20231;-73
2023/04/09 09:37:26;;;;;;;10.88;9.77;;;;;;;14.34;53.89;95275.44;5016915;28;20206;-65
2023/04/09 09:39:54;;;;;;;8.57;7.40;;;;;;;14.36;53.50;95265.09;5016686;28;20207;-70
2023/04/09 09:42:22;;;;;;;10.88;9.77;;;;;;;14.08;54.27;95291.09;5017011;28;20584;-73
2023/04/09 09:44:50;;;;;;;5.65;5.22;;;;;;;12.53;57.96;95293.09;5017337;28;20211;-68
2023/04/09 09:47:18;;;;;;;9.23;8.32;;;;;;;11.94;60.78;95278.25;5017291;28;20204;-70
2023/04/09 09:49:45;;;;;;;9.65;8.85;;;;;;;12.39;59.58;95267.28;5016716;28;20215;-67
2023/04/09 09:52:12;;;;;;;8.55;7.65;;;;;;;12.67;58.37;95284.91;5016139;28;20214;-69
2023/04/09 09:54:41;;;;;;;6.93;6.18;;;;;;;12.10;60.05;95269.19;5017000;28;20243;-68
2023/04/09 09:57:12;;;;;;;8.73;7.82;;;;;;;11.78;61.00;95272.88;5016940;28;20227;-70
2023/04/09 09:59:43;;;;;;;9.13;8.38;;;;;;;11.95;61.35;95264.63;5016507;28;20206;-70
2023/04/09 10:02:18;;;;;;;7.15;6.45;;;;;;;12.12;60.04;95261.50;5017170;28;20291;-69
2023/04/09 10:04:45;;;;;;;10.13;9.23;;;;;;;12.39;58.80;95244.34;5017020;28;20310;-70
2023/04/09 10:07:14;;;;;;;8.70;7.90;;;;;;;12.45;57.78;95255.13;5016603;28;20204;-68
2023/04/09 10:09:45;;;;;;;8.52;7.68;;;;;;;12.41;57.49;95250.22;5015542;28;20295;-68
2023/04/09 10:12:12;;;;;;;7.45;6.82;;;;;;;12.54;56.40;95254.81;5016798;28;20207;-69
2023/04/09 10:14:42;;;;;;;8.90;8.07;;;;;;;12.67;56.13;95257.69;5015543;28;20756;-73
2023/04/09 10:17:09;;;;;;;6.70;6.15;;;;;;;12.34;56.84;95266.66;5016716;28;20764;-71
2023/04/09 10:19:41;;;;;;;9.45;7.32;;;;;;;12.10;58.36;95263.28;5016052;28;20274;-64
2023/04/09 10:22:11;;;;;;;7.97;7.28;;;;;;;12.27;57.17;95261.75;5015906;28;20744;-72
2023/04/09 10:24:38;;;;;;;6.72;6.13;;;;;;;12.11;56.54;95253.03;5016906;28;20393;-70
2023/04/09 10:27:11;;;;;;;7.15;6.35;;;;;;;12.54;55.99;95253.97;5016119;28;20326;-67
2023/04/09 10:29:45;;;;;;;6.95;6.45;;;;;;;12.82;55.37;95253.75;5015535;28;20302;-70
2023/04/09 10:32:12;;;;;;;7.95;7.25;;;;;;;13.12;54.74;95241.47;5012441;28;20289;-68
2023/04/09 10:34:40;;;;;;;8.25;7.57;;;;;;;13.35;53.72;95238.03;5015018;28;20310;-69
2023/04/09 10:37:09;;;;;;;5.40;5.00;;;;;;;13.24;53.56;95263.97;5015820;28;20318;-68
2023/04/09 10:39:40;;;;;;;7.30;6.60;;;;;;;13.33;53.77;95229.59;5015919;28;20210;-70
2023/04/09 10:42:11;;;;;;;5.32;4.82;;;;;;;13.30;53.40;95233.09;5015244;28;20203;-65
2023/04/09 10:44:41;;;;;;;6.15;5.55;;;;;;;13.21;53.60;95233.47;5016672;28;20271;-67
2023/04/09 10:47:10;;;;;;;7.88;7.22;;;;;;;13.51;53.31;95224.53;5015756;28;20665;-71
2023/04/09 10:49:38;;;;;;;7.78;7.07;;;;;;;13.96;52.26;95220.91;5016058;28;20220;-70
2023/04/09 10:52:06;;;;;;;6.97;6.47;;;;;;;13.85;51.80;95226.50;5015280;28;20693;-68
2023/04/09 10:54:42;;;;;;;5.85;5.35;;;;;;;13.62;52.37;95222.34;5015847;28;20679;-69
2023/04/09 10:57:20;;;;;;;6.53;6.03;;;;;;;13.69;52.41;95205.03;5015738;28;20224;-70
2023/04/09 10:59:49;;;;;;;7.50;6.80;;;;;;;13.88;52.16;95203.34;5015151;28;20199;-65
2023/04/09 11:02:54;;;;;;;8.10;7.32;;;;;;;14.17;51.81;95212.25;5015181;28;20818;-63
2023/04/09 11:05:43;;;;;;;7.20;6.60;;;;;;;14.62;50.18;95195.72;5014970;28;20298;-65
2023/04/09 11:08:11;;;;;;;7.72;7.13;;;;;;;14.61;50.16;95196.63;5011957;28;20212;-71
2023/04/09 11:10:38;;;;;;;7.55;6.85;;;;;;;14.80;49.83;95188.94;5015405;28;20290;-68
2023/04/09 11:13:06;;;;;;;7.60;7.00;;;;;;;14.86;49.54;95191.19;5015159;28;20656;-69
2023/04/09 11:15:35;;;;;;;8.40;7.70;;;;;;;14.86;49.88;95186.06;5015454;28;20251;-69
2023/04/09 11:18:05;;;;;;;6.22;5.82;;;;;;;14.69;48.89;95197.09;5015052;28;20211;-71
2023/04/09 11:20:34;;;;;;;9.10;6.32;;;;;;;14.92;49.00;95191.72;5015067;28;20302;-67
2023/04/09 11:23:00;;;;;;;7.13;6.63;;;;;;;14.72;48.98;95193.56;5014251;28;20294;-72
2023/04/09 11:25:30;;;;;;;6.50;6.10;;;;;;;14.64;49.56;95188.81;5015344;28;20295;-70
2023/04/09 11:27:57;;;;;;;6.55;5.97;;;;;;;14.77;48.85;95200.13;5014917;28;20233;-70
2023/04/09 11:30:23;;;;;;;6.78;6.25;;;;;;;14.87;48.53;95193.66;5014699;28;20281;-69